sensor_id;sensor_type;location;lat;lon;timestamp;temperature;humidity
12039;DHT22;6080;48.818;9.526;2023-04-06T03:00:29;-1.60;99.90
12039;DHT22;6080;48.818;9.526;2023-04-06T03:02:55;-1.60;99.90
12039;DHT22;6080;48.818;9.526;2023-04-06T03:05:21;-1.70;99.90
12039;DHT22;6080;48.818;9.526;2023-04-06T03:07:47;-1.70;99.90
12039;DHT22;6080;48.818;9.526;2023-04-06T03:10:13;-1.70;99.90
12039;DHT22;6080;48.818;9.526;2023-04-06T03:12:39;-1.70;99.90
12039;DHT22;6080;48.818;9.526;2023-04-06T03:15:07;-1.70;99.90
12039;DHT22;6080;48.818;9.526;2023-04-06T03:17:33;-1.70;99.90
12039;DHT22;6080;48.818;9.526;2023-04-06T03:19:59;-1.70;99.90
12039;DHT22;6080;48.818;9.526;2023-04-06T03:22:25;-1.80;99.90
12039;DHT22;6080;48.818;9.526;2023-04-06T03:24:51;-1.90;99.90
12039;DHT22;6080;48.818;9.526;2023-04-06T03:27:17;-1.90;99.90
12039;DHT22;6080;48.818;9.526;2023-04-06T03:29:43;-2.00;99.90
12039;DHT22;6080;48.818;9.526;2023-04-06T03:32:09;-2.10;99.90
12039;DHT22;6080;48.818;9.526;2023-04-06T03:34:35;-2.10;99.90
12039;DHT22;6080;48.818;9.526;2023-04-06T03:37:01;-2.10;99.90
12039;DHT22;6080;48.818;9.526;2023-04-06T03:39:27;-2.00;99.90
12039;DHT22;6080;48.818;9.526;2023-04-06T03:41:53;-2.00;99.90
12039;DHT22;6080;48.818;9.526;2023-04-06T03:44:18;-2.00;99.90
12039;DHT22;6080;48.818;9.526;2023-04-06T03:46:45;-2.00;99.90
12039;DHT22;6080;48.818;9.526;2023-04-06T03:49:11;-2.00;99.90
12039;DHT22;6080;48.818;9.526;2023-04-06T03:51:36;-1.90;99.90
12039;DHT22;6080;48.818;9.526;2023-04-06T03:54:02;-1.90;99.90
12039;DHT22;6080;48.818;9.526;2023-04-06T03:56:28;-2.00;99.90
12039;DHT22;6080;48.818;9.526;2023-04-06T03:58:54;-1.90;99.90
12039;DHT22;6080;48.818;9.526;2023-04-06T04:01:20;-2.00;99.90
12039;DHT22;6080;48.818;9.526;2023-04-06T04:03:46;-2.00;99.90
12039;DHT22;6080;48.818;9.526;2023-04-06T04:06:12;-2.00;99.90
12039;DHT22;6080;48.818;9.526;2023-04-06T04:08:37;-2.00;99.90
12039;DHT22;6080;48.818;9.526;2023-04-06T04:11:03;-2.10;99.90
12039;DHT22;6080;48.818;9.526;2023-04-06T04:13:29;-2.10;99.90
12039;DHT22;6080;48.818;9.526;2023-04-06T04:15:55;-2.20;99.90
12039;DHT22;6080;48.818;9.526;2023-04-06T04:18:21;-2.20;99.90
12039;DHT22;6080;48.818;9.526;2023-04-06T04:20:47;-2.20;99.90
12039;DHT22;6080;48.818;9.526;2023-04-06T04:23:13;-2.20;99.90
12039;DHT22;6080;48.818;9.526;2023-04-06T04:25:39;-2.20;99.90
12039;DHT22;6080;48.818;9.526;2023-04-06T04:28:04;-2.20;99.90
12039;DHT22;6080;48.818;9.526;2023-04-06T04:30:30;-2.20;99.90
12039;DHT22;6080;48.818;9.526;2023-04-06T04:32:56;-2.20;99.90
12039;DHT22;6080;48.818;9.526;2023-04-06T04:35:22;-2.20;99.90
12039;DHT22;6080;48.818;9.526;2023-04-06T04:37:48;-2.20;99.90
12039;DHT22;6080;48.818;9.526;2023-04-06T04:40:13;-2.10;99.90
12039;DHT22;6080;48.818;9.526;2023-04-06T04:42:40;-2.20;99.90
12039;DHT22;6080;48.818;9.526;2023-04-06T04:45:06;-2.20;99.90
12039;DHT22;6080;48.818;9.526;2023-04-06T04:47:31;-2.30;99.90
12039;DHT22;6080;48.818;9.526;2023-04-06T04:49:57;-2.30;99.90
12039;DHT22;6080;48.818;9.526;2023-04-06T04:52:23;-2.40;99.90
12039;DHT22;6080;48.818;9.526;2023-04-06T04:54:49;-2.30;99.90
12039;DHT22;6080;48.818;9.526;2023-04-06T04:57:15;-2.30;99.90
12039;DHT22;6080;48.818;9.526;2023-04-06T04:59:42;-2.40;99.90
12039;DHT22;6080;48.818;9.526;2023-04-06T05:02:09;-2.30;99.90
12039;DHT22;6080;48.818;9.526;2023-04-06T05:04:35;-2.40;99.90
12039;DHT22;6080;48.818;9.526;2023-04-06T05:07:08;-2.40;99.90
12039;DHT22;6080;48.818;9.526;2023-04-06T05:09:35;-2.30;99.90
12039;DHT22;6080;48.818;9.526;2023-04-06T05:12:01;-2.20;99.90
12039;DHT22;6080;48.818;9.526;2023-04-06T05:14:27;-2.10;99.90
12039;DHT22;6080;48.818;9.526;2023-04-06T05:16:53;-2.10;99.90
12039;DHT22;6080;48.818;9.526;2023-04-06T05:19:19;-2.00;99.90
12039;DHT22;6080;48.818;9.526;2023-04-06T05:21:45;-1.80;99.90
12039;DHT22;6080;48.818;9.526;2023-04-06T05:24:11;-1.50;99.90
12039;DHT22;6080;48.818;9.526;2023-04-06T05:26:37;-1.30;99.90
12039;DHT22;6080;48.818;9.526;2023-04-06T05:29:03;-1.00;99.90
12039;DHT22;6080;48.818;9.526;2023-04-06T05:31:29;-0.80;99.90
12039;DHT22;6080;48.818;9.526;2023-04-06T05:33:56;-0.60;99.90
12039;DHT22;6080;48.818;9.526;2023-04-06T05:36:22;-0.40;99.90
12039;DHT22;6080;48.818;9.526;2023-04-06T05:38:48;-0.30;99.90
12039;DHT22;6080;48.818;9.526;2023-04-06T05:41:15;0.00;99.90
12039;DHT22;6080;48.818;9.526;2023-04-06T05:43:41;0.40;99.90
12039;DHT22;6080;48.818;9.526;2023-04-06T05:46:07;0.70;99.90
12039;DHT22;6080;48.818;9.526;2023-04-06T05:48:33;1.00;99.90
12039;DHT22;6080;48.818;9.526;2023-04-06T05:50:59;1.30;99.90
12039;DHT22;6080;48.818;9.526;2023-04-06T05:53:25;1.70;99.90
12039;DHT22;6080;48.818;9.526;2023-04-06T05:55:51;1.90;99.90
12039;DHT22;6080;48.818;9.526;2023-04-06T05:58:17;2.10;99.90
12039;DHT22;6080;48.818;9.526;2023-04-06T06:00:43;2.40;99.90
12039;DHT22;6080;48.818;9.526;2023-04-06T06:03:12;2.60;99.90
12039;DHT22;6080;48.818;9.526;2023-04-06T06:05:38;2.70;99.90
12039;DHT22;6080;48.818;9.526;2023-04-06T06:08:04;2.80;99.90
12039;DHT22;6080;48.818;9.526;2023-04-06T06:10:29;2.70;99.90
12039;DHT22;6080;48.818;9.526;2023-04-06T06:12:55;2.80;99.90
12039;DHT22;6080;48.818;9.526;2023-04-06T06:15:21;3.10;99.90
12039;DHT22;6080;48.818;9.526;2023-04-06T06:17:47;3.50;99.90
12039;DHT22;6080;48.818;9.526;2023-04-06T06:20:13;4.00;99.90
12039;DHT22;6080;48.818;9.526;2023-04-06T06:22:39;4.40;99.90
12039;DHT22;6080;48.818;9.526;2023-04-06T06:25:05;4.80;99.90
12039;DHT22;6080;48.818;9.526;2023-04-06T06:27:31;5.00;99.90
12039;DHT22;6080;48.818;9.526;2023-04-06T06:29:57;5.30;99.90
12039;DHT22;6080;48.818;9.526;2023-04-06T06:32:23;5.70;99.90
12039;DHT22;6080;48.818;9.526;2023-04-06T06:34:49;5.80;99.90
12039;DHT22;6080;48.818;9.526;2023-04-06T06:37:14;6.40;99.90
12039;DHT22;6080;48.818;9.526;2023-04-06T06:39:40;6.50;99.90
12039;DHT22;6080;48.818;9.526;2023-04-06T06:42:06;6.70;99.90
12039;DHT22;6080;48.818;9.526;2023-04-06T06:44:32;7.00;99.90
12039;DHT22;6080;48.818;9.526;2023-04-06T06:46:58;7.20;99.90
12039;DHT22;6080;48.818;9.526;2023-04-06T06:49:23;7.20;99.90
12039;DHT22;6080;48.818;9.526;2023-04-06T06:51:49;7.40;99.90
12039;DHT22;6080;48.818;9.526;2023-04-06T06:54:15;7.50;99.90
12039;DHT22;6080;48.818;9.526;2023-04-06T06:56:41;7.80;99.90
12039;DHT22;6080;48.818;9.526;2023-04-06T06:59:07;8.00;99.90
12039;DHT22;6080;48.818;9.526;2023-04-06T07:01:33;8.20;99.90
12039;DHT22;6080;48.818;9.526;2023-04-06T07:04:00;8.30;99.90
12039;DHT22;6080;48.818;9.526;2023-04-06T07:06:26;8.10;99.90
12039;DHT22;6080;48.818;9.526;2023-04-06T07:08:51;8.30;99.90
12039;DHT22;6080;48.818;9.526;2023-04-06T07:11:17;8.60;99.90
12039;DHT22;6080;48.818;9.526;2023-04-06T07:13:43;8.70;99.90
12039;DHT22;6080;48.818;9.526;2023-04-06T07:16:09;9.10;99.90
12039;DHT22;6080;48.818;9.526;2023-04-06T07:18:35;9.30;99.90
12039;DHT22;6080;48.818;9.526;2023-04-06T07:21:00;9.60;99.80
12039;DHT22;6080;48.818;9.526;2023-04-06T07:23:26;9.50;98.50
12039;DHT22;6080;48.818;9.526;2023-04-06T07:25:52;9.60;97.20
12039;DHT22;6080;48.818;9.526;2023-04-06T07:28:19;9.80;97.20
12039;DHT22;6080;48.818;9.526;2023-04-06T07:30:45;10.10;96.60
12039;DHT22;6080;48.818;9.526;2023-04-06T07:33:11;10.50;95.20
12039;DHT22;6080;48.818;9.526;2023-04-06T07:35:37;10.80;94.70
12039;DHT22;6080;48.818;9.526;2023-04-06T07:38:03;11.10;93.60
12039;DHT22;6080;48.818;9.526;2023-04-06T07:40:30;11.20;92.80
12039;DHT22;6080;48.818;9.526;2023-04-06T07:42:57;11.00;91.80
12039;DHT22;6080;48.818;9.526;2023-04-06T07:45:23;10.50;92.90
12039;DHT22;6080;48.818;9.526;2023-04-06T07:47:49;10.50;92.70
12039;DHT22;6080;48.818;9.526;2023-04-06T07:50:15;10.40;92.00
12039;DHT22;6080;48.818;9.526;2023-04-06T07:52:41;10.40;92.20
12039;DHT22;6080;48.818;9.526;2023-04-06T07:55:07;10.20;92.70
12039;DHT22;6080;48.818;9.526;2023-04-06T07:57:33;10.70;92.70
12039;DHT22;6080;48.818;9.526;2023-04-06T07:59:59;11.20;92.10
12039;DHT22;6080;48.818;9.526;2023-04-06T08:02:26;11.50;90.70
12039;DHT22;6080;48.818;9.526;2023-04-06T08:04:52;12.00;89.40
12039;DHT22;6080;48.818;9.526;2023-04-06T08:07:17;12.30;86.00
12039;DHT22;6080;48.818;9.526;2023-04-06T08:09:43;12.60;82.60
12039;DHT22;6080;48.818;9.526;2023-04-06T08:12:09;12.50;79.50
12039;DHT22;6080;48.818;9.526;2023-04-06T08:14:35;12.20;79.60
12039;DHT22;6080;48.818;9.526;2023-04-06T08:17:01;12.40;79.00
12039;DHT22;6080;48.818;9.526;2023-04-06T08:19:27;12.70;79.40
12039;DHT22;6080;48.818;9.526;2023-04-06T08:21:52;12.30;80.00
12039;DHT22;6080;48.818;9.526;2023-04-06T08:24:18;12.30;79.60
12039;DHT22;6080;48.818;9.526;2023-04-06T08:26:44;11.70;81.00
12039;DHT22;6080;48.818;9.526;2023-04-06T08:29:10;11.50;81.40
12039;DHT22;6080;48.818;9.526;2023-04-06T08:31:36;11.30;82.50
12039;DHT22;6080;48.818;9.526;2023-04-06T08:34:05;11.80;82.90
12039;DHT22;6080;48.818;9.526;2023-04-06T08:36:32;12.60;79.00
12039;DHT22;6080;48.818;9.526;2023-04-06T08:38:59;12.80;77.70
12039;DHT22;6080;48.818;9.526;2023-04-06T08:41:25;13.00;77.70
12039;DHT22;6080;48.818;9.526;2023-04-06T08:44:02;12.90;76.40
12039;DHT22;6080;48.818;9.526;2023-04-06T08:46:31;12.50;76.60
12039;DHT22;6080;48.818;9.526;2023-04-06T08:49:01;13.00;77.70
12039;DHT22;6080;48.818;9.526;2023-04-06T08:51:28;13.40;76.10
12039;DHT22;6080;48.818;9.526;2023-04-06T08:53:57;13.40;74.20
12039;DHT22;6080;48.818;9.526;2023-04-06T08:56:24;13.70;76.00
12039;DHT22;6080;48.818;9.526;2023-04-06T08:58:52;14.10;74.00
12039;DHT22;6080;48.818;9.526;2023-04-06T09:01:21;14.40;70.30
12039;DHT22;6080;48.818;9.526;2023-04-06T09:03:49;14.80;69.10
12039;DHT22;6080;48.818;9.526;2023-04-06T09:06:16;14.80;68.80
12039;DHT22;6080;48.818;9.526;2023-04-06T09:08:42;15.20;68.20
12039;DHT22;6080;48.818;9.526;2023-04-06T09:11:08;15.50;66.50
12039;DHT22;6080;48.818;9.526;2023-04-06T09:13:51;15.40;66.70
12039;DHT22;6080;48.818;9.526;2023-04-06T09:16:18;15.10;66.40
12039;DHT22;6080;48.818;9.526;2023-04-06T09:18:44;14.70;67.20
12039;DHT22;6080;48.818;9.526;2023-04-06T09:21:10;14.60;64.60
12039;DHT22;6080;48.818;9.526;2023-04-06T09:23:37;14.40;64.90
12039;DHT22;6080;48.818;9.526;2023-04-06T09:26:10;14.60;63.80
12039;DHT22;6080;48.818;9.526;2023-04-06T09:28:53;15.10;63.40
12039;DHT22;6080;48.818;9.526;2023-04-06T09:31:29;15.30;61.10
12039;DHT22;6080;48.818;9.526;2023-04-06T09:33:56;15.40;62.30
12039;DHT22;6080;48.818;9.526;2023-04-06T09:36:32;15.70;60.60
12039;DHT22;6080;48.818;9.526;2023-04-06T09:39:03;16.10;59.80
12039;DHT22;6080;48.818;9.526;2023-04-06T09:41:34;16.30;61.30
12039;DHT22;6080;48.818;9.526;2023-04-06T09:44:04;16.60;57.30
12039;DHT22;6080;48.818;9.526;2023-04-06T09:46:39;16.60;54.80
12039;DHT22;6080;48.818;9.526;2023-04-06T09:49:07;16.70;54.00
12039;DHT22;6080;48.818;9.526;2023-04-06T09:51:38;16.40;54.70
12039;DHT22;6080;48.818;9.526;2023-04-06T09:54:05;16.40;56.60
12039;DHT22;6080;48.818;9.526;2023-04-06T09:56:39;16.90;54.80
12039;DHT22;6080;48.818;9.526;2023-04-06T09:59:13;17.50;56.00
12039;DHT22;6080;48.818;9.526;2023-04-06T10:01:40;17.80;49.80
12039;DHT22;6080;48.818;9.526;2023-04-06T10:04:42;18.00;49.60
12039;DHT22;6080;48.818;9.526;2023-04-06T10:07:10;17.80;48.20
12039;DHT22;6080;48.818;9.526;2023-04-06T10:09:37;17.50;48.60
12039;DHT22;6080;48.818;9.526;2023-04-06T10:12:05;17.40;47.20
12039;DHT22;6080;48.818;9.526;2023-04-06T10:14:34;17.70;47.20
12039;DHT22;6080;48.818;9.526;2023-04-06T10:17:04;18.20;47.90
12039;DHT22;6080;48.818;9.526;2023-04-06T10:19:46;18.30;46.90
12039;DHT22;6080;48.818;9.526;2023-04-06T10:22:22;18.50;47.50
12039;DHT22;6080;48.818;9.526;2023-04-06T10:24:48;18.60;47.00
12039;DHT22;6080;48.818;9.526;2023-04-06T10:27:14;19.00;47.00
12039;DHT22;6080;48.818;9.526;2023-04-06T10:29:44;19.00;45.90
12039;DHT22;6080;48.818;9.526;2023-04-06T10:32:10;19.20;46.20
12039;DHT22;6080;48.818;9.526;2023-04-06T10:34:36;19.80;46.40
12039;DHT22;6080;48.818;9.526;2023-04-06T10:37:13;19.80;41.80
12039;DHT22;6080;48.818;9.526;2023-04-06T10:39:46;19.20;43.00
12039;DHT22;6080;48.818;9.526;2023-04-06T10:42:12;19.10;43.80
12039;DHT22;6080;48.818;9.526;2023-04-06T10:44:43;19.30;44.40
12039;DHT22;6080;48.818;9.526;2023-04-06T10:47:16;20.20;42.10
12039;DHT22;6080;48.818;9.526;2023-04-06T10:49:43;20.10;42.20
12039;DHT22;6080;48.818;9.526;2023-04-06T10:52:09;19.90;41.50
12039;DHT22;6080;48.818;9.526;2023-04-06T10:54:41;19.30;41.50
12039;DHT22;6080;48.818;9.526;2023-04-06T10:57:08;18.70;42.10
12039;DHT22;6080;48.818;9.526;2023-04-06T10:59:34;18.40;43.10
12039;DHT22;6080;48.818;9.526;2023-04-06T11:02:00;18.30;42.50
12039;DHT22;6080;48.818;9.526;2023-04-06T11:04:26;18.50;42.00
12039;DHT22;6080;48.818;9.526;2023-04-06T11:06:52;18.80;42.00
12039;DHT22;6080;48.818;9.526;2023-04-06T11:09:25;18.90;41.20
12039;DHT22;6080;48.818;9.526;2023-04-06T11:11:51;18.90;40.10
12039;DHT22;6080;48.818;9.526;2023-04-06T11:14:18;18.80;40.90
12039;DHT22;6080;48.818;9.526;2023-04-06T11:16:47;19.20;40.40
12039;DHT22;6080;48.818;9.526;2023-04-06T11:19:14;19.60;38.70
12039;DHT22;6080;48.818;9.526;2023-04-06T11:21:40;19.30;40.00
12039;DHT22;6080;48.818;9.526;2023-04-06T11:24:13;19.50;40.40
12039;DHT22;6080;48.818;9.526;2023-04-06T11:26:54;20.00;39.90
12039;DHT22;6080;48.818;9.526;2023-04-06T11:29:21;20.60;38.00
12039;DHT22;6080;48.818;9.526;2023-04-06T11:31:53;20.60;38.20
12039;DHT22;6080;48.818;9.526;2023-04-06T11:34:20;20.80;37.30
12039;DHT22;6080;48.818;9.526;2023-04-06T11:36:48;20.70;38.20
12039;DHT22;6080;48.818;9.526;2023-04-06T11:39:22;21.00;38.40
12039;DHT22;6080;48.818;9.526;2023-04-06T11:41:58;21.50;37.60
12039;DHT22;6080;48.818;9.526;2023-04-06T11:44:40;20.80;36.90
12039;DHT22;6080;48.818;9.526;2023-04-06T11:47:10;21.20;37.50
12039;DHT22;6080;48.818;9.526;2023-04-06T11:49:40;21.00;37.10
12039;DHT22;6080;48.818;9.526;2023-04-06T11:52:22;19.90;37.30
12039;DHT22;6080;48.818;9.526;2023-04-06T11:54:50;19.50;38.70
12039;DHT22;6080;48.818;9.526;2023-04-06T11:57:17;19.50;37.30
12039;DHT22;6080;48.818;9.526;2023-04-06T11:59:43;19.60;37.90
12039;DHT22;6080;48.818;9.526;2023-04-06T12:02:09;19.90;38.20
12039;DHT22;6080;48.818;9.526;2023-04-06T12:04:35;19.90;38.60
12039;DHT22;6080;48.818;9.526;2023-04-06T12:07:01;20.10;37.50
12039;DHT22;6080;48.818;9.526;2023-04-06T12:09:27;21.20;37.60
12039;DHT22;6080;48.818;9.526;2023-04-06T12:11:53;21.60;36.10
12039;DHT22;6080;48.818;9.526;2023-04-06T12:14:18;21.70;35.10
12039;DHT22;6080;48.818;9.526;2023-04-06T12:16:44;21.90;35.50
12039;DHT22;6080;48.818;9.526;2023-04-06T12:19:10;22.50;33.90
12039;DHT22;6080;48.818;9.526;2023-04-06T12:21:36;22.60;35.10
12039;DHT22;6080;48.818;9.526;2023-04-06T12:24:06;22.00;36.60
12039;DHT22;6080;48.818;9.526;2023-04-06T12:26:32;20.80;37.80
12039;DHT22;6080;48.818;9.526;2023-04-06T12:28:59;20.50;36.30
12039;DHT22;6080;48.818;9.526;2023-04-06T12:31:34;20.70;38.20
12039;DHT22;6080;48.818;9.526;2023-04-06T12:34:01;20.40;36.00
12039;DHT22;6080;48.818;9.526;2023-04-06T12:36:28;20.50;36.40
12039;DHT22;6080;48.818;9.526;2023-04-06T12:38:54;20.60;36.30
12039;DHT22;6080;48.818;9.526;2023-04-06T12:41:21;20.90;35.30
12039;DHT22;6080;48.818;9.526;2023-04-06T12:43:46;20.90;34.50
12039;DHT22;6080;48.818;9.526;2023-04-06T12:46:14;20.80;35.40
12039;DHT22;6080;48.818;9.526;2023-04-06T12:48:40;20.30;35.90
12039;DHT22;6080;48.818;9.526;2023-04-06T12:51:06;20.40;36.50
12039;DHT22;6080;48.818;9.526;2023-04-06T12:53:33;20.40;34.90
12039;DHT22;6080;48.818;9.526;2023-04-06T12:56:00;21.00;32.90
12039;DHT22;6080;48.818;9.526;2023-04-06T12:58:26;21.70;31.60
12039;DHT22;6080;48.818;9.526;2023-04-06T13:00:53;22.50;30.40
12039;DHT22;6080;48.818;9.526;2023-04-06T13:03:19;23.80;29.70
12039;DHT22;6080;48.818;9.526;2023-04-06T13:05:47;24.00;31.90
12039;DHT22;6080;48.818;9.526;2023-04-06T13:08:14;23.00;32.30
12039;DHT22;6080;48.818;9.526;2023-04-06T13:10:47;22.70;32.20
12039;DHT22;6080;48.818;9.526;2023-04-06T13:13:24;22.60;33.60
12039;DHT22;6080;48.818;9.526;2023-04-06T13:15:50;22.40;33.20
12039;DHT22;6080;48.818;9.526;2023-04-06T13:18:16;21.80;32.60
12039;DHT22;6080;48.818;9.526;2023-04-06T13:20:42;21.40;33.20
12039;DHT22;6080;48.818;9.526;2023-04-06T13:23:08;22.80;31.10
12039;DHT22;6080;48.818;9.526;2023-04-06T13:25:34;23.50;31.60
12039;DHT22;6080;48.818;9.526;2023-04-06T13:28:00;24.30;28.80
12039;DHT22;6080;48.818;9.526;2023-04-06T13:30:26;24.10;29.00
12039;DHT22;6080;48.818;9.526;2023-04-06T13:32:52;24.50;28.30
12039;DHT22;6080;48.818;9.526;2023-04-06T13:35:18;23.80;29.80
12039;DHT22;6080;48.818;9.526;2023-04-06T13:37:44;23.40;28.50
12039;DHT22;6080;48.818;9.526;2023-04-06T13:40:10;23.80;28.20
12039;DHT22;6080;48.818;9.526;2023-04-06T13:42:37;23.50;28.30
12039;DHT22;6080;48.818;9.526;2023-04-06T13:45:05;23.20;28.20
12039;DHT22;6080;48.818;9.526;2023-04-06T13:47:31;22.80;32.00
12039;DHT22;6080;48.818;9.526;2023-04-06T13:49:57;23.10;32.50
12039;DHT22;6080;48.818;9.526;2023-04-06T13:52:23;22.90;30.40
12039;DHT22;6080;48.818;9.526;2023-04-06T13:54:49;22.80;30.40
12039;DHT22;6080;48.818;9.526;2023-04-06T13:57:15;22.90;29.00
12039;DHT22;6080;48.818;9.526;2023-04-06T13:59:41;22.00;29.50
12039;DHT22;6080;48.818;9.526;2023-04-06T14:02:09;21.10;30.80
12039;DHT22;6080;48.818;9.526;2023-04-06T14:04:35;20.90;31.40
12039;DHT22;6080;48.818;9.526;2023-04-06T14:07:02;20.40;31.50
12039;DHT22;6080;48.818;9.526;2023-04-06T14:09:29;20.50;31.30
12039;DHT22;6080;48.818;9.526;2023-04-06T14:11:56;20.10;31.60
12039;DHT22;6080;48.818;9.526;2023-04-06T14:14:22;19.20;32.80
12039;DHT22;6080;48.818;9.526;2023-04-06T14:16:48;19.20;34.30
12039;DHT22;6080;48.818;9.526;2023-04-06T14:19:16;19.00;35.50
12039;DHT22;6080;48.818;9.526;2023-04-06T14:21:43;18.80;37.70
12039;DHT22;6080;48.818;9.526;2023-04-06T14:24:10;18.00;39.60
12039;DHT22;6080;48.818;9.526;2023-04-06T14:26:36;17.60;39.10
12039;DHT22;6080;48.818;9.526;2023-04-06T14:29:05;18.20;36.20
12039;DHT22;6080;48.818;9.526;2023-04-06T14:31:31;18.30;36.20
12039;DHT22;6080;48.818;9.526;2023-04-06T14:33:58;18.50;35.50
12039;DHT22;6080;48.818;9.526;2023-04-06T14:36:23;18.80;36.70
12039;DHT22;6080;48.818;9.526;2023-04-06T14:38:52;19.00;33.80
12039;DHT22;6080;48.818;9.526;2023-04-06T14:41:23;18.70;32.00
12039;DHT22;6080;48.818;9.526;2023-04-06T14:43:50;18.60;35.70
12039;DHT22;6080;48.818;9.526;2023-04-06T14:46:18;18.10;35.80
12039;DHT22;6080;48.818;9.526;2023-04-06T14:48:44;17.90;38.60
12039;DHT22;6080;48.818;9.526;2023-04-06T14:51:11;17.40;40.50
12039;DHT22;6080;48.818;9.526;2023-04-06T14:53:37;17.20;39.50
12039;DHT22;6080;48.818;9.526;2023-04-06T14:56:03;17.10;39.50
12039;DHT22;6080;48.818;9.526;2023-04-06T14:58:29;17.60;40.50
12039;DHT22;6080;48.818;9.526;2023-04-06T15:00:59;17.90;39.80
12039;DHT22;6080;48.818;9.526;2023-04-06T15:03:28;18.40;39.70
12039;DHT22;6080;48.818;9.526;2023-04-06T15:05:55;18.90;39.80
12039;DHT22;6080;48.818;9.526;2023-04-06T15:08:22;19.30;39.60
12039;DHT22;6080;48.818;9.526;2023-04-06T15:10:51;19.30;38.40
12039;DHT22;6080;48.818;9.526;2023-04-06T15:13:17;19.80;38.10
12039;DHT22;6080;48.818;9.526;2023-04-06T15:15:43;20.10;36.10
12039;DHT22;6080;48.818;9.526;2023-04-06T15:18:10;19.10;36.00
12039;DHT22;6080;48.818;9.526;2023-04-06T15:20:37;17.90;37.40
12039;DHT22;6080;48.818;9.526;2023-04-06T15:23:03;17.30;38.60
12039;DHT22;6080;48.818;9.526;2023-04-06T15:25:29;17.00;38.70
12039;DHT22;6080;48.818;9.526;2023-04-06T15:27:56;16.80;38.90
12039;DHT22;6080;48.818;9.526;2023-04-06T15:30:22;16.80;39.20
12039;DHT22;6080;48.818;9.526;2023-04-06T15:33:00;17.00;41.10
12039;DHT22;6080;48.818;9.526;2023-04-06T15:35:27;17.40;40.50
12039;DHT22;6080;48.818;9.526;2023-04-06T15:37:54;17.80;39.70
12039;DHT22;6080;48.818;9.526;2023-04-06T15:40:21;18.40;38.70
12039;DHT22;6080;48.818;9.526;2023-04-06T15:42:47;18.60;38.80
12039;DHT22;6080;48.818;9.526;2023-04-06T15:45:13;18.50;37.90
12039;DHT22;6080;48.818;9.526;2023-04-06T15:47:40;18.10;38.50
12039;DHT22;6080;48.818;9.526;2023-04-06T15:50:07;17.90;38.90
12039;DHT22;6080;48.818;9.526;2023-04-06T15:52:33;17.60;39.30
12039;DHT22;6080;48.818;9.526;2023-04-06T15:54:59;17.40;40.60
12039;DHT22;6080;48.818;9.526;2023-04-06T15:57:25;17.30;40.90
12039;DHT22;6080;48.818;9.526;2023-04-06T15:59:50;17.50;39.10
12039;DHT22;6080;48.818;9.526;2023-04-06T16:02:16;17.80;39.20
12039;DHT22;6080;48.818;9.526;2023-04-06T16:04:44;17.60;38.70
12039;DHT22;6080;48.818;9.526;2023-04-06T16:07:10;17.20;38.80
12039;DHT22;6080;48.818;9.526;2023-04-06T16:09:36;16.60;39.40
12039;DHT22;6080;48.818;9.526;2023-04-06T16:12:01;16.10;40.40
12039;DHT22;6080;48.818;9.526;2023-04-06T16:14:27;15.70;41.50
12039;DHT22;6080;48.818;9.526;2023-04-06T16:16:54;15.40;42.30
12039;DHT22;6080;48.818;9.526;2023-04-06T16:19:20;15.30;42.60
12039;DHT22;6080;48.818;9.526;2023-04-06T16:21:45;15.10;42.10
12039;DHT22;6080;48.818;9.526;2023-04-06T16:24:12;15.00;42.70
12039;DHT22;6080;48.818;9.526;2023-04-06T16:26:38;14.90;43.40
12039;DHT22;6080;48.818;9.526;2023-04-06T16:29:04;14.70;44.30
12039;DHT22;6080;48.818;9.526;2023-04-06T16:31:31;14.60;45.60
12039;DHT22;6080;48.818;9.526;2023-04-06T16:33:57;14.60;45.40
12039;DHT22;6080;48.818;9.526;2023-04-06T16:36:28;14.50;45.20
12039;DHT22;6080;48.818;9.526;2023-04-06T16:38:55;14.50;45.50
12039;DHT22;6080;48.818;9.526;2023-04-06T16:41:21;14.50;46.00
12039;DHT22;6080;48.818;9.526;2023-04-06T16:43:47;14.40;46.50
12039;DHT22;6080;48.818;9.526;2023-04-06T16:46:14;14.30;46.70
12039;DHT22;6080;48.818;9.526;2023-04-06T16:48:40;14.20;46.20
12039;DHT22;6080;48.818;9.526;2023-04-06T16:51:06;14.10;47.90
12039;DHT22;6080;48.818;9.526;2023-04-06T16:53:33;14.00;48.20
12039;DHT22;6080;48.818;9.526;2023-04-06T16:56:02;13.80;47.90
12039;DHT22;6080;48.818;9.526;2023-04-06T16:58:30;13.70;47.40
12039;DHT22;6080;48.818;9.526;2023-04-06T17:00:56;13.60;48.30
12039;DHT22;6080;48.818;9.526;2023-04-06T17:03:25;13.50;47.40
12039;DHT22;6080;48.818;9.526;2023-04-06T17:05:51;13.40;48.60
12039;DHT22;6080;48.818;9.526;2023-04-06T17:08:17;13.30;49.40
12039;DHT22;6080;48.818;9.526;2023-04-06T17:10:43;13.20;50.80
12039;DHT22;6080;48.818;9.526;2023-04-06T17:13:09;12.90;52.60
12039;DHT22;6080;48.818;9.526;2023-04-06T17:15:35;12.80;53.10
12039;DHT22;6080;48.818;9.526;2023-04-06T17:18:01;12.70;53.70
12039;DHT22;6080;48.818;9.526;2023-04-06T17:20:26;12.60;54.30
12039;DHT22;6080;48.818;9.526;2023-04-06T17:22:52;12.50;54.80
12039;DHT22;6080;48.818;9.526;2023-04-06T17:25:18;12.40;55.10
12039;DHT22;6080;48.818;9.526;2023-04-06T17:27:44;12.40;56.10
12039;DHT22;6080;48.818;9.526;2023-04-06T17:30:11;12.30;56.10
12039;DHT22;6080;48.818;9.526;2023-04-06T17:32:37;12.30;55.60
12039;DHT22;6080;48.818;9.526;2023-04-06T17:35:03;12.20;56.10
12039;DHT22;6080;48.818;9.526;2023-04-06T17:37:29;12.10;55.90
12039;DHT22;6080;48.818;9.526;2023-04-06T17:39:56;12.00;55.50
12039;DHT22;6080;48.818;9.526;2023-04-06T17:42:22;11.90;56.00
12039;DHT22;6080;48.818;9.526;2023-04-06T17:44:48;11.90;56.80
12039;DHT22;6080;48.818;9.526;2023-04-06T17:47:14;11.80;58.10
12039;DHT22;6080;48.818;9.526;2023-04-06T17:49:40;11.70;59.50
12039;DHT22;6080;48.818;9.526;2023-04-06T17:52:06;11.60;61.00
12039;DHT22;6080;48.818;9.526;2023-04-06T17:54:34;11.50;63.00
12039;DHT22;6080;48.818;9.526;2023-04-06T17:57:00;11.40;64.10
12039;DHT22;6080;48.818;9.526;2023-04-06T17:59:27;11.40;64.60
12039;DHT22;6080;48.818;9.526;2023-04-06T18:01:53;11.30;65.50
12039;DHT22;6080;48.818;9.526;2023-04-06T18:04:19;11.30;64.90
12039;DHT22;6080;48.818;9.526;2023-04-06T18:06:45;11.20;64.50
12039;DHT22;6080;48.818;9.526;2023-04-06T18:09:10;11.10;64.70
12039;DHT22;6080;48.818;9.526;2023-04-06T18:11:36;11.00;65.30
12039;DHT22;6080;48.818;9.526;2023-04-06T18:14:08;10.90;66.00
12039;DHT22;6080;48.818;9.526;2023-04-06T18:16:36;10.80;66.80
12039;DHT22;6080;48.818;9.526;2023-04-06T18:19:02;10.70;66.40
12039;DHT22;6080;48.818;9.526;2023-04-06T18:21:29;10.60;66.70
12039;DHT22;6080;48.818;9.526;2023-04-06T18:23:57;10.60;66.70
12039;DHT22;6080;48.818;9.526;2023-04-06T18:26:23;10.50;66.50
12039;DHT22;6080;48.818;9.526;2023-04-06T18:28:50;10.40;66.80
12039;DHT22;6080;48.818;9.526;2023-04-06T18:31:16;10.40;66.90
12039;DHT22;6080;48.818;9.526;2023-04-06T18:33:42;10.30;67.30
12039;DHT22;6080;48.818;9.526;2023-04-06T18:36:08;10.40;66.90
12039;DHT22;6080;48.818;9.526;2023-04-06T18:38:37;10.30;66.20
12039;DHT22;6080;48.818;9.526;2023-04-06T18:41:04;10.30;66.60
12039;DHT22;6080;48.818;9.526;2023-04-06T18:43:30;10.40;64.90
12039;DHT22;6080;48.818;9.526;2023-04-06T18:45:55;10.40;62.60